createdAt,value
2022-12-11T00:05:51.564Z,41.13
2022-12-11T00:11:44.896Z,39.85
2022-12-11T00:17:37.576Z,39.33
2022-12-11T00:23:30.646Z,41.25
2022-12-11T00:29:23.598Z,42.00
2022-12-11T00:35:16.405Z,37.22
2022-12-11T00:41:08.724Z,38.58
2022-12-11T00:47:01.807Z,38.50
2022-12-11T00:52:54.676Z,36.33
2022-12-11T00:58:48.637Z,37.38
2022-12-11T01:04:42.723Z,31.35
2022-12-11T01:10:35.330Z,38.30
2022-12-11T01:16:27.807Z,39.63
2022-12-11T01:22:21.236Z,41.22
2022-12-11T01:28:13.877Z,39.55
2022-12-11T01:34:06.563Z,40.90
2022-12-11T01:39:58.715Z,40.15
2022-12-11T01:45:50.431Z,39.15
2022-12-11T01:51:49.780Z,30.70
2022-12-11T01:57:44.497Z,39.70
2022-12-11T02:03:36.947Z,36.38
2022-12-11T02:09:35.496Z,37.30
2022-12-11T02:15:49.845Z,37.22
2022-12-11T02:21:47.945Z,38.80
2022-12-11T02:27:47.516Z,36.05
2022-12-11T02:33:52.136Z,32.55
2022-12-11T02:39:47.518Z,31.17
2022-12-11T02:45:42.506Z,36.15
2022-12-11T02:51:40.255Z,35.83
2022-12-11T02:57:51.476Z,33.03
2022-12-11T03:03:43.878Z,28.30
2022-12-11T03:09:35.976Z,31.95
2022-12-11T03:16:14.829Z,32.08
2022-12-11T03:22:33.915Z,32.55
2022-12-11T03:28:44.807Z,32.35
2022-12-11T03:34:40.926Z,36.08
2022-12-11T03:40:35.813Z,33.53
2022-12-11T03:46:32.176Z,29.05
2022-12-11T03:52:27.619Z,31.70
2022-12-11T03:58:19.938Z,35.70
2022-12-11T04:04:12.212Z,33.75
2022-12-11T04:10:07.566Z,32.10
2022-12-11T04:16:01.916Z,33.88
2022-12-11T04:22:12.674Z,32.10
2022-12-11T04:28:05.275Z,32.80
2022-12-11T04:33:57.539Z,31.02
2022-12-11T04:39:50.526Z,29.47
2022-12-11T04:45:44.198Z,29.95
2022-12-11T04:51:36.305Z,31.60
2022-12-11T04:57:30.196Z,32.22
2022-12-11T05:03:22.674Z,33.90
2022-12-11T05:09:16.915Z,20.95
2022-12-11T05:15:11.676Z,32.00
2022-12-11T05:21:13.494Z,24.67
2022-12-11T05:27:07.236Z,29.17
2022-12-11T05:32:59.216Z,24.25
2022-12-11T05:38:53.296Z,22.75
2022-12-11T05:44:46.677Z,28.88
2022-12-11T05:50:39.195Z,23.93
2022-12-11T05:56:34.797Z,26.55
2022-12-11T06:02:27.442Z,26.45
2022-12-11T06:08:20.485Z,25.67
2022-12-11T06:14:14.123Z,23.90
2022-12-11T06:20:06.887Z,17.08
2022-12-11T06:25:59.418Z,20.33
2022-12-11T06:31:51.608Z,24.70
2022-12-11T06:37:44.512Z,23.88
2022-12-11T06:43:39.057Z,24.13
2022-12-11T06:49:31.555Z,21.80
2022-12-11T06:55:24.116Z,23.13
2022-12-11T07:01:25.109Z,21.73
2022-12-11T07:07:17.535Z,22.98
2022-12-11T07:13:10.498Z,26.73
2022-12-11T07:19:02.585Z,26.45
2022-12-11T07:24:54.396Z,27.05
2022-12-11T07:30:46.705Z,24.42
2022-12-11T07:36:39.865Z,24.52
2022-12-11T07:42:32.406Z,22.30
2022-12-11T07:48:24.796Z,21.07
2022-12-11T07:54:18.725Z,17.35
2022-12-11T08:00:12.135Z,13.13
2022-12-11T08:06:09.297Z,20.25
2022-12-11T08:12:01.724Z,18.60
2022-12-11T08:17:54.987Z,19.35
2022-12-11T08:23:48.795Z,21.77
2022-12-11T08:29:41.736Z,21.40
2022-12-11T08:35:40.674Z,20.35
2022-12-11T08:41:33.031Z,17.77
2022-12-11T08:47:26.099Z,16.08
2022-12-11T08:53:19.086Z,16.05
2022-12-11T08:59:11.846Z,17.35
2022-12-11T09:05:08.203Z,15.40
2022-12-11T09:11:11.251Z,15.82
2022-12-11T09:17:05.857Z,17.67
2022-12-11T09:22:59.865Z,18.42
2022-12-11T09:28:54.015Z,14.65
2022-12-11T09:34:51.555Z,15.65
2022-12-11T09:40:43.834Z,21.30
2022-12-11T09:46:38.402Z,21.87
2022-12-11T09:52:35.851Z,20.58
2022-12-11T09:58:58.765Z,19.70
2022-12-11T10:05:04.387Z,19.60
2022-12-11T10:10:56.946Z,20.08
2022-12-11T10:17:00.271Z,20.00
2022-12-11T10:22:55.426Z,15.73
2022-12-11T10:28:48.262Z,16.33
2022-12-11T10:34:46.846Z,16.55
2022-12-11T10:40:42.886Z,14.60
2022-12-11T10:46:37.449Z,12.45
2022-12-11T10:52:35.448Z,15.05
2022-12-11T10:58:34.419Z,15.02
2022-12-11T11:04:45.075Z,14.77
2022-12-11T11:10:36.896Z,14.95
2022-12-11T11:16:29.513Z,13.77
2022-12-11T11:22:21.697Z,14.90
2022-12-11T11:28:21.440Z,12.73
2022-12-11T11:34:22.415Z,15.85
2022-12-11T11:40:24.685Z,15.48
2022-12-11T11:46:31.084Z,15.43
2022-12-11T11:52:34.894Z,14.82
2022-12-11T11:58:42.126Z,14.80
2022-12-11T12:04:37.106Z,14.95
2022-12-11T12:10:46.897Z,13.30
2022-12-11T12:16:59.801Z,16.83
2022-12-11T12:29:21.220Z,17.38
2022-12-11T12:35:34.697Z,17.02
2022-12-11T12:41:45.140Z,14.27
2022-12-11T12:47:38.938Z,14.27
2022-12-11T12:53:35.126Z,17.63
2022-12-11T12:59:28.197Z,18.40
2022-12-11T13:05:23.127Z,13.85
2022-12-11T13:11:18.278Z,19.40
2022-12-11T13:17:22.655Z,14.63
2022-12-11T13:23:19.668Z,12.70
2022-12-11T13:29:35.745Z,12.68
2022-12-11T13:35:28.925Z,12.50
2022-12-11T13:41:23.506Z,12.07
2022-12-11T13:53:24.224Z,12.32
2022-12-11T13:59:29.198Z,18.23
2022-12-11T14:05:21.955Z,16.23
2022-12-11T14:11:39.405Z,17.00
2022-12-11T14:17:34.539Z,16.60
2022-12-11T14:23:30.033Z,9.95
2022-12-11T14:29:27.017Z,17.70
2022-12-11T14:35:35.501Z,14.93
2022-12-11T14:42:00.246Z,12.02
2022-12-11T14:47:55.822Z,14.32
2022-12-11T14:53:51.254Z,12.52
2022-12-11T14:59:51.065Z,11.30
2022-12-11T15:05:52.755Z,11.27
2022-12-11T15:11:47.485Z,14.90
2022-12-11T15:17:40.555Z,15.02
2022-12-11T15:23:37.527Z,15.77
2022-12-11T15:29:39.067Z,10.82
2022-12-11T15:35:28.297Z,14.93
2022-12-11T15:41:21.786Z,14.75
2022-12-11T15:47:15.718Z,10.88
2022-12-11T15:53:08.095Z,12.82
2022-12-11T15:59:06.541Z,11.90
2022-12-11T16:05:00.208Z,14.90
2022-12-11T16:10:55.345Z,15.30
2022-12-11T16:16:49.626Z,15.57
2022-12-11T16:22:42.197Z,8.35
2022-12-11T16:28:36.209Z,11.05
2022-12-11T16:34:29.246Z,11.93
2022-12-11T16:40:22.136Z,13.40
2022-12-11T16:46:19.792Z,13.35
2022-12-11T16:52:16.436Z,10.40
2022-12-11T16:58:16.537Z,10.57
2022-12-11T17:04:10.156Z,14.32
2022-12-11T17:10:06.618Z,14.18
2022-12-11T17:15:59.465Z,16.30
2022-12-11T17:21:55.426Z,15.82
2022-12-11T17:27:49.847Z,16.98
2022-12-11T17:33:42.252Z,18.23
2022-12-11T17:39:34.917Z,17.73
2022-12-11T17:45:26.946Z,18.17
2022-12-11T17:51:24.716Z,16.52
2022-12-11T17:57:17.229Z,17.75
2022-12-11T18:03:10.605Z,16.98
2022-12-11T18:09:04.246Z,15.60
2022-12-11T18:15:01.185Z,16.80
2022-12-11T18:20:53.158Z,17.58
2022-12-11T18:26:45.755Z,17.75
2022-12-11T18:32:37.874Z,18.85
2022-12-11T18:38:30.458Z,19.23
2022-12-11T18:50:15.436Z,19.60
2022-12-11T18:56:10.905Z,19.50
2022-12-11T19:02:03.657Z,19.38
2022-12-11T19:07:58.800Z,20.40
2022-12-11T19:13:56.837Z,21.20
2022-12-11T19:19:49.427Z,21.42
2022-12-11T19:31:40.195Z,18.85
2022-12-11T19:37:38.690Z,22.38
2022-12-11T19:43:33.782Z,23.00
2022-12-11T19:49:30.055Z,21.75
2022-12-11T19:55:23.646Z,20.08
2022-12-11T20:01:26.166Z,21.80
2022-12-11T20:07:18.396Z,22.52
2022-12-11T20:13:12.555Z,17.60
2022-12-11T20:19:06.756Z,23.33
2022-12-11T20:25:03.828Z,23.88
2022-12-11T20:31:07.618Z,19.95
2022-12-11T20:37:01.435Z,21.50
2022-12-11T20:42:55.166Z,20.70
2022-12-11T20:48:50.685Z,22.38
2022-12-11T20:54:46.706Z,21.77
2022-12-11T21:00:39.981Z,19.60
2022-12-11T21:06:35.456Z,24.30
2022-12-11T21:12:31.488Z,19.02
2022-12-11T21:18:25.206Z,22.38
2022-12-11T21:24:23.787Z,20.10
2022-12-11T21:30:17.117Z,22.55
2022-12-11T21:36:12.267Z,21.20
2022-12-11T21:42:04.925Z,19.65
2022-12-11T21:53:52.057Z,18.40
2022-12-11T21:59:45.794Z,12.52
2022-12-11T22:05:38.406Z,12.93
2022-12-11T22:11:34.255Z,20.10
2022-12-11T22:17:28.835Z,19.02
2022-12-11T22:23:09.119Z,21.23
2022-12-11T22:28:49.836Z,18.95
2022-12-11T22:34:30.605Z,20.85
2022-12-11T22:40:11.085Z,20.95
2022-12-11T22:45:51.233Z,21.15
2022-12-11T22:51:31.957Z,11.77
2022-12-11T22:57:11.920Z,21.38
2022-12-11T23:02:52.733Z,21.67
2022-12-11T23:08:32.553Z,22.38
2022-12-11T23:14:15.634Z,22.13
2022-12-11T23:20:08.405Z,20.05
2022-12-11T23:26:01.121Z,21.73
2022-12-11T23:31:53.645Z,22.67
2022-12-11T23:37:46.757Z,22.60
2022-12-11T23:43:41.955Z,26.02
2022-12-11T23:49:34.087Z,20.60
2022-12-11T23:55:27.751Z,22.50
